sensor_id;sensor_type;location;lat;lon;timestamp;P1;durP1;ratioP1;P2;durP2;ratioP2
21806;SDS011;11065;50.786;7.840;2023-05-07T00:01:37;1.67;;;0.97;;
21806;SDS011;11065;50.786;7.840;2023-05-07T00:04:05;2.57;;;0.90;;
21806;SDS011;11065;50.786;7.840;2023-05-07T00:06:34;3.60;;;1.17;;
21806;SDS011;11065;50.786;7.840;2023-05-07T00:09:02;1.93;;;1.07;;
21806;SDS011;11065;50.786;7.840;2023-05-07T00:11:30;1.83;;;1.10;;
21806;SDS011;11065;50.786;7.840;2023-05-07T00:14:01;2.73;;;0.90;;
21806;SDS011;11065;50.786;7.840;2023-05-07T00:16:29;2.90;;;0.97;;
21806;SDS011;11065;50.786;7.840;2023-05-07T00:18:58;2.10;;;0.90;;
21806;SDS011;11065;50.786;7.840;2023-05-07T00:21:26;1.23;;;0.80;;
21806;SDS011;11065;50.786;7.840;2023-05-07T00:23:54;0.90;;;0.80;;
21806;SDS011;11065;50.786;7.840;2023-05-07T00:26:22;5.50;;;0.77;;
21806;SDS011;11065;50.786;7.840;2023-05-07T00:28:50;1.30;;;0.83;;
21806;SDS011;11065;50.786;7.840;2023-05-07T00:31:20;4.50;;;1.07;;
21806;SDS011;11065;50.786;7.840;2023-05-07T00:33:48;2.60;;;0.93;;
21806;SDS011;11065;50.786;7.840;2023-05-07T00:36:16;1.73;;;1.00;;
21806;SDS011;11065;50.786;7.840;2023-05-07T00:38:43;1.77;;;0.90;;
21806;SDS011;11065;50.786;7.840;2023-05-07T00:41:11;1.07;;;0.70;;
21806;SDS011;11065;50.786;7.840;2023-05-07T00:43:39;1.70;;;0.87;;
21806;SDS011;11065;50.786;7.840;2023-05-07T00:46:07;1.83;;;1.00;;
21806;SDS011;11065;50.786;7.840;2023-05-07T00:48:37;1.33;;;0.70;;
21806;SDS011;11065;50.786;7.840;2023-05-07T00:51:05;1.67;;;1.00;;
21806;SDS011;11065;50.786;7.840;2023-05-07T00:53:34;1.90;;;0.90;;
21806;SDS011;11065;50.786;7.840;2023-05-07T00:56:02;2.17;;;1.13;;
21806;SDS011;11065;50.786;7.840;2023-05-07T00:58:32;2.27;;;1.30;;
21806;SDS011;11065;50.786;7.840;2023-05-07T01:01:01;2.57;;;1.47;;
21806;SDS011;11065;50.786;7.840;2023-05-07T01:03:30;2.70;;;1.20;;
21806;SDS011;11065;50.786;7.840;2023-05-07T01:05:59;2.40;;;1.20;;
21806;SDS011;11065;50.786;7.840;2023-05-07T01:08:29;1.80;;;1.10;;
21806;SDS011;11065;50.786;7.840;2023-05-07T01:10:58;3.40;;;1.00;;
21806;SDS011;11065;50.786;7.840;2023-05-07T01:13:27;2.33;;;1.20;;
21806;SDS011;11065;50.786;7.840;2023-05-07T01:15:56;2.30;;;1.10;;
21806;SDS011;11065;50.786;7.840;2023-05-07T01:18:24;2.07;;;1.10;;
21806;SDS011;11065;50.786;7.840;2023-05-07T01:20:53;4.67;;;1.10;;
21806;SDS011;11065;50.786;7.840;2023-05-07T01:23:24;3.97;;;1.23;;
21806;SDS011;11065;50.786;7.840;2023-05-07T01:25:52;3.03;;;1.10;;
21806;SDS011;11065;50.786;7.840;2023-05-07T01:28:24;5.03;;;1.50;;
21806;SDS011;11065;50.786;7.840;2023-05-07T01:30:56;1.27;;;1.00;;
21806;SDS011;11065;50.786;7.840;2023-05-07T01:33:29;3.73;;;1.20;;
21806;SDS011;11065;50.786;7.840;2023-05-07T01:36:00;1.57;;;1.13;;
21806;SDS011;11065;50.786;7.840;2023-05-07T01:38:34;4.03;;;1.43;;
21806;SDS011;11065;50.786;7.840;2023-05-07T01:41:03;2.90;;;1.13;;
21806;SDS011;11065;50.786;7.840;2023-05-07T01:43:32;2.57;;;1.60;;
21806;SDS011;11065;50.786;7.840;2023-05-07T01:46:01;2.83;;;1.77;;
21806;SDS011;11065;50.786;7.840;2023-05-07T01:48:30;2.83;;;1.10;;
21806;SDS011;11065;50.786;7.840;2023-05-07T01:51:00;2.37;;;1.13;;
21806;SDS011;11065;50.786;7.840;2023-05-07T01:53:30;2.10;;;1.20;;
21806;SDS011;11065;50.786;7.840;2023-05-07T01:56:05;2.73;;;1.20;;
21806;SDS011;11065;50.786;7.840;2023-05-07T01:58:36;1.83;;;1.17;;
21806;SDS011;11065;50.786;7.840;2023-05-07T02:01:04;3.40;;;1.23;;
21806;SDS011;11065;50.786;7.840;2023-05-07T02:03:32;2.37;;;1.43;;
21806;SDS011;11065;50.786;7.840;2023-05-07T02:06:08;3.17;;;1.37;;
21806;SDS011;11065;50.786;7.840;2023-05-07T02:08:39;2.37;;;1.30;;
21806;SDS011;11065;50.786;7.840;2023-05-07T02:11:09;2.60;;;1.13;;
21806;SDS011;11065;50.786;7.840;2023-05-07T02:13:37;2.23;;;1.40;;
21806;SDS011;11065;50.786;7.840;2023-05-07T02:16:05;1.70;;;1.27;;
21806;SDS011;11065;50.786;7.840;2023-05-07T02:18:34;2.00;;;1.23;;
21806;SDS011;11065;50.786;7.840;2023-05-07T02:21:03;3.43;;;1.33;;
21806;SDS011;11065;50.786;7.840;2023-05-07T02:23:31;3.23;;;1.30;;
21806;SDS011;11065;50.786;7.840;2023-05-07T02:26:01;2.57;;;1.40;;
21806;SDS011;11065;50.786;7.840;2023-05-07T02:28:31;2.30;;;1.30;;
21806;SDS011;11065;50.786;7.840;2023-05-07T02:31:03;3.10;;;1.40;;
21806;SDS011;11065;50.786;7.840;2023-05-07T02:33:32;3.40;;;1.40;;
21806;SDS011;11065;50.786;7.840;2023-05-07T02:36:06;2.47;;;1.30;;
21806;SDS011;11065;50.786;7.840;2023-05-07T02:38:40;2.40;;;1.17;;
21806;SDS011;11065;50.786;7.840;2023-05-07T02:41:10;2.57;;;1.30;;
21806;SDS011;11065;50.786;7.840;2023-05-07T02:43:38;2.77;;;1.27;;
21806;SDS011;11065;50.786;7.840;2023-05-07T02:46:08;3.27;;;1.23;;
21806;SDS011;11065;50.786;7.840;2023-05-07T02:48:40;4.40;;;1.37;;
21806;SDS011;11065;50.786;7.840;2023-05-07T02:51:09;2.37;;;1.37;;
21806;SDS011;11065;50.786;7.840;2023-05-07T02:53:39;2.10;;;1.17;;
21806;SDS011;11065;50.786;7.840;2023-05-07T02:56:07;2.40;;;1.37;;
21806;SDS011;11065;50.786;7.840;2023-05-07T02:58:36;1.53;;;1.20;;
21806;SDS011;11065;50.786;7.840;2023-05-07T03:01:06;2.67;;;1.27;;
21806;SDS011;11065;50.786;7.840;2023-05-07T03:03:38;3.33;;;1.47;;
21806;SDS011;11065;50.786;7.840;2023-05-07T03:06:07;1.83;;;1.20;;
21806;SDS011;11065;50.786;7.840;2023-05-07T03:08:35;2.43;;;1.47;;
21806;SDS011;11065;50.786;7.840;2023-05-07T03:11:03;1.63;;;1.00;;
21806;SDS011;11065;50.786;7.840;2023-05-07T03:13:31;1.47;;;1.10;;
21806;SDS011;11065;50.786;7.840;2023-05-07T03:16:01;2.73;;;1.30;;
21806;SDS011;11065;50.786;7.840;2023-05-07T03:18:29;2.23;;;1.20;;
21806;SDS011;11065;50.786;7.840;2023-05-07T03:20:57;2.37;;;1.40;;
21806;SDS011;11065;50.786;7.840;2023-05-07T03:23:25;3.03;;;1.10;;
21806;SDS011;11065;50.786;7.840;2023-05-07T03:25:53;2.00;;;1.20;;
21806;SDS011;11065;50.786;7.840;2023-05-07T03:28:21;1.90;;;1.20;;
21806;SDS011;11065;50.786;7.840;2023-05-07T03:30:54;4.50;;;1.20;;
21806;SDS011;11065;50.786;7.840;2023-05-07T03:33:24;1.77;;;1.07;;
21806;SDS011;11065;50.786;7.840;2023-05-07T03:35:54;1.50;;;1.13;;
21806;SDS011;11065;50.786;7.840;2023-05-07T03:38:24;2.47;;;1.27;;
21806;SDS011;11065;50.786;7.840;2023-05-07T03:40:52;2.03;;;1.30;;
21806;SDS011;11065;50.786;7.840;2023-05-07T03:43:20;2.13;;;1.20;;
21806;SDS011;11065;50.786;7.840;2023-05-07T03:45:56;4.20;;;1.40;;
21806;SDS011;11065;50.786;7.840;2023-05-07T03:48:27;2.73;;;1.30;;
21806;SDS011;11065;50.786;7.840;2023-05-07T03:50:57;4.30;;;2.37;;
21806;SDS011;11065;50.786;7.840;2023-05-07T03:53:30;2.70;;;2.10;;
21806;SDS011;11065;50.786;7.840;2023-05-07T03:55:58;4.70;;;2.10;;
21806;SDS011;11065;50.786;7.840;2023-05-07T03:58:30;2.00;;;1.80;;
21806;SDS011;11065;50.786;7.840;2023-05-07T04:01:03;2.20;;;1.50;;
21806;SDS011;11065;50.786;7.840;2023-05-07T04:03:33;1.83;;;1.43;;
21806;SDS011;11065;50.786;7.840;2023-05-07T04:06:01;1.50;;;1.20;;
21806;SDS011;11065;50.786;7.840;2023-05-07T04:08:31;1.63;;;1.10;;
21806;SDS011;11065;50.786;7.840;2023-05-07T04:11:00;3.33;;;1.33;;
21806;SDS011;11065;50.786;7.840;2023-05-07T04:13:30;3.40;;;1.27;;
21806;SDS011;11065;50.786;7.840;2023-05-07T04:16:01;4.53;;;1.30;;
21806;SDS011;11065;50.786;7.840;2023-05-07T04:18:30;3.17;;;1.60;;
21806;SDS011;11065;50.786;7.840;2023-05-07T04:21:00;3.03;;;1.80;;
21806;SDS011;11065;50.786;7.840;2023-05-07T04:23:29;3.30;;;1.60;;
21806;SDS011;11065;50.786;7.840;2023-05-07T04:26:00;4.07;;;1.50;;
21806;SDS011;11065;50.786;7.840;2023-05-07T04:28:36;3.60;;;1.73;;
21806;SDS011;11065;50.786;7.840;2023-05-07T04:31:04;4.70;;;2.20;;
21806;SDS011;11065;50.786;7.840;2023-05-07T04:33:36;5.03;;;2.20;;
21806;SDS011;11065;50.786;7.840;2023-05-07T04:36:07;3.03;;;1.87;;
21806;SDS011;11065;50.786;7.840;2023-05-07T04:38:42;2.50;;;1.60;;
21806;SDS011;11065;50.786;7.840;2023-05-07T04:41:12;2.03;;;1.40;;
21806;SDS011;11065;50.786;7.840;2023-05-07T04:43:40;2.33;;;1.50;;
21806;SDS011;11065;50.786;7.840;2023-05-07T04:46:10;2.87;;;1.67;;
21806;SDS011;11065;50.786;7.840;2023-05-07T04:48:41;3.73;;;1.60;;
21806;SDS011;11065;50.786;7.840;2023-05-07T04:51:10;2.10;;;1.47;;
21806;SDS011;11065;50.786;7.840;2023-05-07T04:53:38;3.10;;;1.50;;
21806;SDS011;11065;50.786;7.840;2023-05-07T04:56:07;2.87;;;1.67;;
21806;SDS011;11065;50.786;7.840;2023-05-07T04:58:39;2.10;;;1.33;;
21806;SDS011;11065;50.786;7.840;2023-05-07T05:01:08;2.17;;;1.40;;
21806;SDS011;11065;50.786;7.840;2023-05-07T05:03:37;2.40;;;1.20;;
21806;SDS011;11065;50.786;7.840;2023-05-07T05:06:08;2.97;;;1.27;;
21806;SDS011;11065;50.786;7.840;2023-05-07T05:08:37;2.70;;;1.53;;
21806;SDS011;11065;50.786;7.840;2023-05-07T05:11:05;2.40;;;1.60;;
21806;SDS011;11065;50.786;7.840;2023-05-07T05:13:35;2.17;;;1.30;;
21806;SDS011;11065;50.786;7.840;2023-05-07T05:16:11;1.73;;;1.33;;
21806;SDS011;11065;50.786;7.840;2023-05-07T05:18:39;2.80;;;1.43;;
21806;SDS011;11065;50.786;7.840;2023-05-07T05:21:11;1.70;;;1.20;;
21806;SDS011;11065;50.786;7.840;2023-05-07T05:23:41;3.70;;;1.30;;
21806;SDS011;11065;50.786;7.840;2023-05-07T05:26:10;1.77;;;1.30;;
21806;SDS011;11065;50.786;7.840;2023-05-07T05:28:40;1.93;;;1.40;;
21806;SDS011;11065;50.786;7.840;2023-05-07T05:31:08;2.57;;;1.43;;
21806;SDS011;11065;50.786;7.840;2023-05-07T05:33:36;2.50;;;1.30;;
21806;SDS011;11065;50.786;7.840;2023-05-07T05:36:05;4.37;;;1.40;;
21806;SDS011;11065;50.786;7.840;2023-05-07T05:38:37;1.60;;;1.20;;
21806;SDS011;11065;50.786;7.840;2023-05-07T05:41:06;3.70;;;1.60;;
21806;SDS011;11065;50.786;7.840;2023-05-07T05:43:34;1.73;;;1.40;;
21806;SDS011;11065;50.786;7.840;2023-05-07T05:46:02;2.60;;;1.70;;
21806;SDS011;11065;50.786;7.840;2023-05-07T05:48:32;2.47;;;1.53;;
21806;SDS011;11065;50.786;7.840;2023-05-07T05:51:02;2.40;;;1.60;;
21806;SDS011;11065;50.786;7.840;2023-05-07T05:53:30;3.10;;;1.40;;
21806;SDS011;11065;50.786;7.840;2023-05-07T05:55:59;2.20;;;1.37;;
21806;SDS011;11065;50.786;7.840;2023-05-07T05:58:29;2.10;;;1.60;;
21806;SDS011;11065;50.786;7.840;2023-05-07T06:01:01;2.67;;;1.53;;
21806;SDS011;11065;50.786;7.840;2023-05-07T06:03:30;2.60;;;1.70;;
21806;SDS011;11065;50.786;7.840;2023-05-07T06:06:03;2.90;;;1.53;;
21806;SDS011;11065;50.786;7.840;2023-05-07T06:08:32;3.00;;;1.57;;
21806;SDS011;11065;50.786;7.840;2023-05-07T06:11:02;2.20;;;1.27;;
21806;SDS011;11065;50.786;7.840;2023-05-07T06:13:33;2.43;;;1.60;;
21806;SDS011;11065;50.786;7.840;2023-05-07T06:16:01;2.70;;;1.73;;
21806;SDS011;11065;50.786;7.840;2023-05-07T06:18:29;4.10;;;2.30;;
21806;SDS011;11065;50.786;7.840;2023-05-07T06:20:57;3.80;;;1.67;;
21806;SDS011;11065;50.786;7.840;2023-05-07T06:23:29;2.77;;;1.63;;
21806;SDS011;11065;50.786;7.840;2023-05-07T06:25:58;2.33;;;1.53;;
21806;SDS011;11065;50.786;7.840;2023-05-07T06:28:33;2.90;;;1.63;;
21806;SDS011;11065;50.786;7.840;2023-05-07T06:31:11;2.60;;;1.90;;
21806;SDS011;11065;50.786;7.840;2023-05-07T06:33:43;4.60;;;2.07;;
21806;SDS011;11065;50.786;7.840;2023-05-07T06:36:13;3.77;;;2.00;;
21806;SDS011;11065;50.786;7.840;2023-05-07T06:38:41;4.23;;;1.70;;
21806;SDS011;11065;50.786;7.840;2023-05-07T06:41:09;3.40;;;2.07;;
21806;SDS011;11065;50.786;7.840;2023-05-07T06:43:39;2.47;;;1.87;;
21806;SDS011;11065;50.786;7.840;2023-05-07T06:46:23;2.50;;;1.90;;
21806;SDS011;11065;50.786;7.840;2023-05-07T06:48:52;3.07;;;1.73;;
21806;SDS011;11065;50.786;7.840;2023-05-07T06:51:20;2.20;;;1.73;;
21806;SDS011;11065;50.786;7.840;2023-05-07T06:53:48;2.27;;;2.00;;
21806;SDS011;11065;50.786;7.840;2023-05-07T06:56:16;3.07;;;1.90;;
21806;SDS011;11065;50.786;7.840;2023-05-07T06:58:45;3.63;;;1.90;;
21806;SDS011;11065;50.786;7.840;2023-05-07T07:01:13;3.20;;;2.60;;
21806;SDS011;11065;50.786;7.840;2023-05-07T07:03:43;3.00;;;2.30;;
21806;SDS011;11065;50.786;7.840;2023-05-07T07:06:11;4.33;;;2.40;;
21806;SDS011;11065;50.786;7.840;2023-05-07T07:08:39;3.47;;;2.23;;
21806;SDS011;11065;50.786;7.840;2023-05-07T07:11:09;3.20;;;1.97;;
21806;SDS011;11065;50.786;7.840;2023-05-07T07:13:37;2.93;;;2.17;;
21806;SDS011;11065;50.786;7.840;2023-05-07T07:16:08;3.83;;;2.63;;
21806;SDS011;11065;50.786;7.840;2023-05-07T07:18:37;3.10;;;2.27;;
21806;SDS011;11065;50.786;7.840;2023-05-07T07:21:05;3.10;;;2.50;;
21806;SDS011;11065;50.786;7.840;2023-05-07T07:23:33;3.10;;;2.10;;
21806;SDS011;11065;50.786;7.840;2023-05-07T07:26:01;3.57;;;2.30;;
21806;SDS011;11065;50.786;7.840;2023-05-07T07:28:29;3.70;;;2.23;;
21806;SDS011;11065;50.786;7.840;2023-05-07T07:30:57;3.60;;;2.60;;
21806;SDS011;11065;50.786;7.840;2023-05-07T07:33:28;3.70;;;2.60;;
21806;SDS011;11065;50.786;7.840;2023-05-07T07:35:57;3.33;;;2.33;;
21806;SDS011;11065;50.786;7.840;2023-05-07T07:38:25;3.20;;;2.60;;
21806;SDS011;11065;50.786;7.840;2023-05-07T07:40:53;3.23;;;2.27;;
21806;SDS011;11065;50.786;7.840;2023-05-07T07:43:22;4.07;;;2.57;;
21806;SDS011;11065;50.786;7.840;2023-05-07T07:45:51;4.53;;;2.87;;
21806;SDS011;11065;50.786;7.840;2023-05-07T07:48:19;4.50;;;2.50;;
21806;SDS011;11065;50.786;7.840;2023-05-07T07:50:49;3.37;;;2.67;;
21806;SDS011;11065;50.786;7.840;2023-05-07T07:53:19;3.20;;;2.27;;
21806;SDS011;11065;50.786;7.840;2023-05-07T07:55:47;4.53;;;2.63;;
21806;SDS011;11065;50.786;7.840;2023-05-07T07:58:18;6.17;;;3.07;;
21806;SDS011;11065;50.786;7.840;2023-05-07T08:00:46;2.83;;;2.30;;
21806;SDS011;11065;50.786;7.840;2023-05-07T08:03:15;3.10;;;2.23;;
21806;SDS011;11065;50.786;7.840;2023-05-07T08:05:47;2.70;;;2.07;;
21806;SDS011;11065;50.786;7.840;2023-05-07T08:08:18;3.60;;;2.20;;
21806;SDS011;11065;50.786;7.840;2023-05-07T08:10:47;4.60;;;2.20;;
21806;SDS011;11065;50.786;7.840;2023-05-07T08:13:24;2.93;;;2.50;;
21806;SDS011;11065;50.786;7.840;2023-05-07T08:15:52;3.77;;;1.90;;
21806;SDS011;11065;50.786;7.840;2023-05-07T08:18:21;3.13;;;2.50;;
21806;SDS011;11065;50.786;7.840;2023-05-07T08:20:51;3.00;;;2.03;;
21806;SDS011;11065;50.786;7.840;2023-05-07T08:23:23;4.53;;;2.20;;
21806;SDS011;11065;50.786;7.840;2023-05-07T08:25:51;2.83;;;2.17;;
21806;SDS011;11065;50.786;7.840;2023-05-07T08:28:20;2.80;;;2.10;;
21806;SDS011;11065;50.786;7.840;2023-05-07T08:30:48;4.03;;;2.27;;
21806;SDS011;11065;50.786;7.840;2023-05-07T08:33:17;2.63;;;2.00;;
21806;SDS011;11065;50.786;7.840;2023-05-07T08:35:45;3.00;;;2.30;;
21806;SDS011;11065;50.786;7.840;2023-05-07T08:38:14;4.60;;;2.47;;
21806;SDS011;11065;50.786;7.840;2023-05-07T08:40:43;2.23;;;2.03;;
21806;SDS011;11065;50.786;7.840;2023-05-07T08:43:16;3.60;;;2.47;;
21806;SDS011;11065;50.786;7.840;2023-05-07T08:45:47;2.75;;;1.85;;
21806;SDS011;11065;50.786;7.840;2023-05-07T08:48:24;2.53;;;1.85;;
21806;SDS011;11065;50.786;7.840;2023-05-07T08:51:03;2.63;;;1.98;;
21806;SDS011;11065;50.786;7.840;2023-05-07T08:53:31;2.10;;;1.90;;
21806;SDS011;11065;50.786;7.840;2023-05-07T08:56:02;2.38;;;1.90;;
21806;SDS011;11065;50.786;7.840;2023-05-07T08:58:31;1.70;;;1.60;;
21806;SDS011;11065;50.786;7.840;2023-05-07T09:00:59;2.95;;;1.90;;
21806;SDS011;11065;50.786;7.840;2023-05-07T09:03:30;2.80;;;1.83;;
21806;SDS011;11065;50.786;7.840;2023-05-07T09:05:58;2.05;;;1.80;;
21806;SDS011;11065;50.786;7.840;2023-05-07T09:08:27;5.35;;;1.88;;
21806;SDS011;11065;50.786;7.840;2023-05-07T09:10:59;2.40;;;1.70;;
21806;SDS011;11065;50.786;7.840;2023-05-07T09:13:29;3.15;;;1.90;;
21806;SDS011;11065;50.786;7.840;2023-05-07T09:16:01;1.95;;;1.65;;
21806;SDS011;11065;50.786;7.840;2023-05-07T09:18:42;3.92;;;1.88;;
21806;SDS011;11065;50.786;7.840;2023-05-07T09:21:14;1.98;;;1.73;;
21806;SDS011;11065;50.786;7.840;2023-05-07T09:23:44;1.63;;;1.50;;
21806;SDS011;11065;50.786;7.840;2023-05-07T09:26:13;3.38;;;1.92;;
21806;SDS011;11065;50.786;7.840;2023-05-07T09:28:44;2.10;;;1.90;;
21806;SDS011;11065;50.786;7.840;2023-05-07T09:31:13;3.15;;;1.60;;
21806;SDS011;11065;50.786;7.840;2023-05-07T09:33:44;2.10;;;1.90;;
21806;SDS011;11065;50.786;7.840;2023-05-07T09:36:14;1.60;;;1.50;;
21806;SDS011;11065;50.786;7.840;2023-05-07T09:38:43;1.85;;;1.50;;
21806;SDS011;11065;50.786;7.840;2023-05-07T09:41:12;2.17;;;1.70;;
21806;SDS011;11065;50.786;7.840;2023-05-07T09:43:54;1.98;;;1.50;;
21806;SDS011;11065;50.786;7.840;2023-05-07T09:46:29;2.17;;;1.80;;
21806;SDS011;11065;50.786;7.840;2023-05-07T09:49:02;2.10;;;1.50;;
21806;SDS011;11065;50.786;7.840;2023-05-07T09:51:36;2.05;;;1.45;;
21806;SDS011;11065;50.786;7.840;2023-05-07T09:54:09;3.53;;;1.60;;
21806;SDS011;11065;50.786;7.840;2023-05-07T09:56:40;3.25;;;1.50;;
21806;SDS011;11065;50.786;7.840;2023-05-07T09:59:14;2.17;;;1.70;;
21806;SDS011;11065;50.786;7.840;2023-05-07T10:01:44;2.85;;;1.90;;
21806;SDS011;11065;50.786;7.840;2023-05-07T10:04:13;3.63;;;1.92;;
21806;SDS011;11065;50.786;7.840;2023-05-07T10:06:43;3.47;;;1.65;;
21806;SDS011;11065;50.786;7.840;2023-05-07T10:09:13;3.95;;;1.77;;
21806;SDS011;11065;50.786;7.840;2023-05-07T10:11:42;2.47;;;1.35;;
21806;SDS011;11065;50.786;7.840;2023-05-07T10:14:11;1.73;;;1.25;;
21806;SDS011;11065;50.786;7.840;2023-05-07T10:16:42;2.63;;;1.80;;
21806;SDS011;11065;50.786;7.840;2023-05-07T10:19:14;2.63;;;1.60;;
21806;SDS011;11065;50.786;7.840;2023-05-07T10:21:48;4.18;;;1.70;;
21806;SDS011;11065;50.786;7.840;2023-05-07T10:24:22;3.42;;;1.63;;
21806;SDS011;11065;50.786;7.840;2023-05-07T10:26:54;2.60;;;1.77;;
21806;SDS011;11065;50.786;7.840;2023-05-07T10:29:29;2.25;;;1.45;;
21806;SDS011;11065;50.786;7.840;2023-05-07T10:32:07;2.45;;;1.58;;
21806;SDS011;11065;50.786;7.840;2023-05-07T10:34:47;4.25;;;1.63;;
21806;SDS011;11065;50.786;7.840;2023-05-07T10:37:17;2.70;;;1.50;;
21806;SDS011;11065;50.786;7.840;2023-05-07T10:39:46;2.20;;;1.55;;
21806;SDS011;11065;50.786;7.840;2023-05-07T10:42:14;2.92;;;1.73;;
21806;SDS011;11065;50.786;7.840;2023-05-07T10:44:49;3.15;;;1.50;;
21806;SDS011;11065;50.786;7.840;2023-05-07T10:47:23;2.42;;;1.40;;
21806;SDS011;11065;50.786;7.840;2023-05-07T10:53:20;3.72;;;1.50;;
21806;SDS011;11065;50.786;7.840;2023-05-07T11:02:06;1.50;;;1.20;;
21806;SDS011;11065;50.786;7.840;2023-05-07T11:07:59;2.03;;;1.35;;
21806;SDS011;11065;50.786;7.840;2023-05-07T11:13:42;2.05;;;1.52;;
21806;SDS011;11065;50.786;7.840;2023-05-07T11:16:31;1.67;;;1.30;;
21806;SDS011;11065;50.786;7.840;2023-05-07T11:19:13;1.95;;;1.30;;
21806;SDS011;11065;50.786;7.840;2023-05-07T11:21:46;3.80;;;1.55;;
21806;SDS011;11065;50.786;7.840;2023-05-07T11:24:47;2.15;;;1.60;;
21806;SDS011;11065;50.786;7.840;2023-05-07T11:27:18;2.25;;;1.80;;
21806;SDS011;11065;50.786;7.840;2023-05-07T11:29:51;2.72;;;1.70;;
21806;SDS011;11065;50.786;7.840;2023-05-07T11:32:22;3.40;;;2.00;;
21806;SDS011;11065;50.786;7.840;2023-05-07T11:34:53;3.58;;;1.92;;
21806;SDS011;11065;50.786;7.840;2023-05-07T11:37:24;2.58;;;1.80;;
21806;SDS011;11065;50.786;7.840;2023-05-07T11:40:04;2.30;;;1.38;;
21806;SDS011;11065;50.786;7.840;2023-05-07T11:42:34;2.42;;;1.58;;
21806;SDS011;11065;50.786;7.840;2023-05-07T11:45:04;2.83;;;1.60;;
21806;SDS011;11065;50.786;7.840;2023-05-07T11:47:33;1.95;;;1.63;;
21806;SDS011;11065;50.786;7.840;2023-05-07T11:50:04;2.42;;;1.88;;
21806;SDS011;11065;50.786;7.840;2023-05-07T11:52:34;1.85;;;1.50;;
21806;SDS011;11065;50.786;7.840;2023-05-07T11:55:03;2.55;;;1.55;;
21806;SDS011;11065;50.786;7.840;2023-05-07T11:57:32;2.67;;;1.23;;
21806;SDS011;11065;50.786;7.840;2023-05-07T12:00:01;2.90;;;1.45;;
21806;SDS011;11065;50.786;7.840;2023-05-07T12:02:39;3.00;;;1.13;;
21806;SDS011;11065;50.786;7.840;2023-05-07T12:05:10;1.97;;;1.20;;
21806;SDS011;11065;50.786;7.840;2023-05-07T12:07:38;2.60;;;1.77;;
21806;SDS011;11065;50.786;7.840;2023-05-07T12:10:06;2.63;;;1.50;;
21806;SDS011;11065;50.786;7.840;2023-05-07T12:12:38;2.97;;;1.80;;
21806;SDS011;11065;50.786;7.840;2023-05-07T12:15:08;3.90;;;1.80;;
21806;SDS011;11065;50.786;7.840;2023-05-07T12:17:37;3.30;;;1.63;;
21806;SDS011;11065;50.786;7.840;2023-05-07T12:20:06;3.73;;;2.10;;
21806;SDS011;11065;50.786;7.840;2023-05-07T12:22:37;4.40;;;2.07;;
21806;SDS011;11065;50.786;7.840;2023-05-07T12:25:05;3.73;;;1.97;;
21806;SDS011;11065;50.786;7.840;2023-05-07T12:27:36;3.70;;;2.17;;
21806;SDS011;11065;50.786;7.840;2023-05-07T12:30:05;3.67;;;2.20;;
21806;SDS011;11065;50.786;7.840;2023-05-07T12:32:33;2.60;;;2.10;;
21806;SDS011;11065;50.786;7.840;2023-05-07T12:35:05;2.63;;;1.97;;
21806;SDS011;11065;50.786;7.840;2023-05-07T12:37:34;3.20;;;2.10;;
21806;SDS011;11065;50.786;7.840;2023-05-07T12:40:04;3.83;;;2.37;;
21806;SDS011;11065;50.786;7.840;2023-05-07T12:42:35;4.03;;;2.27;;
21806;SDS011;11065;50.786;7.840;2023-05-07T12:45:07;3.50;;;2.00;;
21806;SDS011;11065;50.786;7.840;2023-05-07T12:47:37;3.20;;;2.20;;
21806;SDS011;11065;50.786;7.840;2023-05-07T12:50:05;4.47;;;2.40;;
21806;SDS011;11065;50.786;7.840;2023-05-07T12:52:34;3.23;;;2.03;;
21806;SDS011;11065;50.786;7.840;2023-05-07T12:55:08;3.37;;;2.10;;
21806;SDS011;11065;50.786;7.840;2023-05-07T12:57:37;2.83;;;2.10;;
21806;SDS011;11065;50.786;7.840;2023-05-07T13:00:06;3.60;;;2.17;;
21806;SDS011;11065;50.786;7.840;2023-05-07T13:02:37;4.67;;;2.60;;
21806;SDS011;11065;50.786;7.840;2023-05-07T13:05:06;3.40;;;2.57;;
21806;SDS011;11065;50.786;7.840;2023-05-07T13:07:36;4.60;;;3.00;;
21806;SDS011;11065;50.786;7.840;2023-05-07T13:10:04;3.30;;;2.67;;
21806;SDS011;11065;50.786;7.840;2023-05-07T13:12:35;3.13;;;2.30;;
21806;SDS011;11065;50.786;7.840;2023-05-07T13:15:03;4.63;;;2.70;;
21806;SDS011;11065;50.786;7.840;2023-05-07T13:17:32;3.90;;;2.40;;
21806;SDS011;11065;50.786;7.840;2023-05-07T13:20:00;3.60;;;2.40;;
21806;SDS011;11065;50.786;7.840;2023-05-07T13:22:29;5.37;;;2.13;;
21806;SDS011;11065;50.786;7.840;2023-05-07T13:24:56;3.33;;;2.60;;
21806;SDS011;11065;50.786;7.840;2023-05-07T13:27:24;4.73;;;2.13;;
21806;SDS011;11065;50.786;7.840;2023-05-07T13:29:54;4.23;;;2.63;;
21806;SDS011;11065;50.786;7.840;2023-05-07T13:32:22;3.80;;;2.27;;
21806;SDS011;11065;50.786;7.840;2023-05-07T13:34:50;3.23;;;2.17;;
21806;SDS011;11065;50.786;7.840;2023-05-07T13:37:18;3.77;;;2.47;;
21806;SDS011;11065;50.786;7.840;2023-05-07T13:39:46;5.40;;;2.70;;
21806;SDS011;11065;50.786;7.840;2023-05-07T13:42:14;5.47;;;2.67;;
21806;SDS011;11065;50.786;7.840;2023-05-07T13:44:43;2.97;;;2.40;;
21806;SDS011;11065;50.786;7.840;2023-05-07T13:47:13;3.63;;;2.57;;
21806;SDS011;11065;50.786;7.840;2023-05-07T13:49:41;4.57;;;2.97;;
21806;SDS011;11065;50.786;7.840;2023-05-07T13:52:09;3.53;;;2.60;;
21806;SDS011;11065;50.786;7.840;2023-05-07T13:54:37;5.87;;;2.80;;
21806;SDS011;11065;50.786;7.840;2023-05-07T13:57:06;4.10;;;3.07;;
21806;SDS011;11065;50.786;7.840;2023-05-07T13:59:33;3.27;;;2.87;;
21806;SDS011;11065;50.786;7.840;2023-05-07T14:02:01;3.57;;;2.93;;
21806;SDS011;11065;50.786;7.840;2023-05-07T14:04:31;3.33;;;2.93;;
21806;SDS011;11065;50.786;7.840;2023-05-07T14:06:59;3.87;;;3.30;;
21806;SDS011;11065;50.786;7.840;2023-05-07T14:09:27;6.47;;;3.23;;
21806;SDS011;11065;50.786;7.840;2023-05-07T14:11:55;4.37;;;3.50;;
21806;SDS011;11065;50.786;7.840;2023-05-07T14:14:23;4.07;;;3.17;;
21806;SDS011;11065;50.786;7.840;2023-05-07T14:16:51;4.17;;;2.80;;
21806;SDS011;11065;50.786;7.840;2023-05-07T14:19:19;4.57;;;3.10;;
21806;SDS011;11065;50.786;7.840;2023-05-07T14:21:50;4.00;;;2.90;;
21806;SDS011;11065;50.786;7.840;2023-05-07T14:24:18;5.37;;;3.27;;
21806;SDS011;11065;50.786;7.840;2023-05-07T14:27:02;3.53;;;2.93;;
21806;SDS011;11065;50.786;7.840;2023-05-07T14:29:30;6.10;;;3.13;;
21806;SDS011;11065;50.786;7.840;2023-05-07T14:31:58;6.00;;;3.70;;
21806;SDS011;11065;50.786;7.840;2023-05-07T14:34:26;5.00;;;3.50;;
21806;SDS011;11065;50.786;7.840;2023-05-07T14:36:56;4.10;;;2.93;;
21806;SDS011;11065;50.786;7.840;2023-05-07T14:39:24;4.40;;;3.20;;
21806;SDS011;11065;50.786;7.840;2023-05-07T14:41:52;5.90;;;4.10;;
21806;SDS011;11065;50.786;7.840;2023-05-07T14:44:22;6.77;;;5.17;;
21806;SDS011;11065;50.786;7.840;2023-05-07T14:46:50;7.70;;;5.03;;
21806;SDS011;11065;50.786;7.840;2023-05-07T14:49:18;11.53;;;7.43;;
21806;SDS011;11065;50.786;7.840;2023-05-07T14:51:47;7.13;;;4.67;;
21806;SDS011;11065;50.786;7.840;2023-05-07T14:54:16;5.30;;;3.80;;
21806;SDS011;11065;50.786;7.840;2023-05-07T14:56:44;4.87;;;3.20;;
21806;SDS011;11065;50.786;7.840;2023-05-07T14:59:12;4.87;;;3.60;;
21806;SDS011;11065;50.786;7.840;2023-05-07T15:01:42;5.70;;;3.43;;
21806;SDS011;11065;50.786;7.840;2023-05-07T15:04:11;5.47;;;4.00;;
21806;SDS011;11065;50.786;7.840;2023-05-07T15:06:41;5.00;;;3.47;;
21806;SDS011;11065;50.786;7.840;2023-05-07T15:09:09;5.17;;;3.47;;
21806;SDS011;11065;50.786;7.840;2023-05-07T15:11:38;4.23;;;3.03;;
21806;SDS011;11065;50.786;7.840;2023-05-07T15:14:06;8.70;;;3.90;;
21806;SDS011;11065;50.786;7.840;2023-05-07T15:16:34;5.37;;;3.07;;
21806;SDS011;11065;50.786;7.840;2023-05-07T15:19:02;4.00;;;2.43;;
21806;SDS011;11065;50.786;7.840;2023-05-07T15:21:30;4.30;;;2.53;;